Time;durP1;ratioP1;P1;durP2;ratioP2;P2;SDS_P1;SDS_P2;PMS_P1;PMS_P2;Temp;Humidity;BMP_temperature;BMP_pressure;BME280_temperature;BME280_humidity;BME280_pressure;Samples;Min_cycle;Max_cycle;Signal;HPM_P1;HPM_P2
2024/04/30 00:01:52;;;;;;;4.30;3.67;;;15.60;99.90;;;;;;5525177;26;20225;-72
2024/04/30 00:04:17;;;;;;;6.23;3.70;;;15.60;99.90;;;;;;5525497;25;20221;-71
2024/04/30 00:06:43;;;;;;;4.57;3.03;;;15.60;99.90;;;;;;5525208;26;20217;-73
2024/04/30 00:09:08;;;;;;;3.60;3.23;;;15.60;99.90;;;;;;5525297;26;20211;-72
2024/04/30 00:11:42;;;;;;;3.30;2.90;;;15.60;99.90;;;;;;5524803;26;20201;-72
2024/04/30 00:14:08;;;;;;;4.07;3.10;;;15.50;99.90;;;;;;5525347;25;20217;-72
2024/04/30 00:16:42;;;;;;;4.03;3.63;;;15.50;99.90;;;;;;5525409;26;20268;-72
2024/04/30 00:19:08;;;;;;;4.73;3.43;;;15.50;99.90;;;;;;5525689;26;20248;-72
2024/04/30 00:21:44;;;;;;;4.40;3.20;;;15.50;99.90;;;;;;5525188;26;20217;-72
2024/04/30 00:24:11;;;;;;;7.80;3.27;;;15.50;99.90;;;;;;5525829;26;20212;-72
2024/04/30 00:26:36;;;;;;;4.10;3.00;;;15.40;99.90;;;;;;5525244;26;20213;-72
2024/04/30 00:29:02;;;;;;;5.50;3.50;;;15.40;99.90;;;;;;5525429;26;20305;-72
2024/04/30 00:31:28;;;;;;;3.43;3.13;;;15.40;99.90;;;;;;5524682;26;20583;-73
2024/04/30 00:33:53;;;;;;;5.57;3.20;;;15.40;99.90;;;;;;5524345;26;20201;-73
2024/04/30 00:36:19;;;;;;;5.00;3.70;;;15.30;99.90;;;;;;5524601;26;20860;-72
2024/04/30 00:38:45;;;;;;;8.10;3.20;;;15.20;99.90;;;;;;5524802;26;20436;-73
2024/04/30 00:41:11;;;;;;;4.20;3.00;;;15.10;99.90;;;;;;5525330;26;20577;-73
2024/04/30 00:43:36;;;;;;;4.50;3.40;;;15.00;99.90;;;;;;5524504;26;20283;-73
2024/04/30 00:46:03;;;;;;;4.60;3.13;;;14.80;99.90;;;;;;5525226;25;20220;-73
2024/04/30 00:48:32;;;;;;;3.70;3.40;;;14.70;99.90;;;;;;5524926;26;20213;-73
2024/04/30 00:51:00;;;;;;;3.50;3.30;;;14.60;99.90;;;;;;5524696;26;20225;-73
2024/04/30 00:53:25;;;;;;;4.93;3.43;;;14.50;99.90;;;;;;5524812;26;20545;-74
2024/04/30 00:55:51;;;;;;;4.33;3.93;;;14.40;99.90;;;;;;5524360;26;20297;-74
2024/04/30 00:58:18;;;;;;;4.63;3.70;;;14.40;99.90;;;;;;5524933;26;20276;-74
2024/04/30 01:00:43;;;;;;;5.17;4.00;;;14.40;99.90;;;;;;5524559;26;20213;-74
2024/04/30 01:03:09;;;;;;;4.97;3.60;;;14.30;99.90;;;;;;5525456;26;20255;-74
2024/04/30 01:05:35;;;;;;;5.33;3.80;;;14.30;99.90;;;;;;5525235;25;20711;-74
2024/04/30 01:08:00;;;;;;;4.40;4.00;;;14.30;99.90;;;;;;5525843;26;20312;-74
2024/04/30 01:10:26;;;;;;;5.73;3.97;;;14.30;99.90;;;;;;5525262;26;20205;-73
2024/04/30 01:12:52;;;;;;;5.47;3.63;;;14.30;99.90;;;;;;5524401;26;20274;-74
2024/04/30 01:15:18;;;;;;;7.57;4.00;;;14.30;99.90;;;;;;5524610;25;20325;-73
2024/04/30 01:17:44;;;;;;;5.07;4.47;;;14.20;99.90;;;;;;5523937;26;20205;-74
2024/04/30 01:20:10;;;;;;;5.03;4.23;;;14.20;99.90;;;;;;5522879;26;20221;-74
2024/04/30 01:22:39;;;;;;;8.47;4.50;;;14.10;99.90;;;;;;5524051;26;20281;-74
2024/04/30 01:25:05;;;;;;;7.23;4.20;;;14.00;99.90;;;;;;5524498;26;20627;-74
2024/04/30 01:27:31;;;;;;;6.03;4.60;;;13.90;99.90;;;;;;5524368;26;20217;-74
2024/04/30 01:29:56;;;;;;;5.07;4.23;;;13.80;99.90;;;;;;5524229;26;20260;-73
2024/04/30 01:32:22;;;;;;;5.97;4.47;;;13.70;99.90;;;;;;5523895;26;20270;-73
2024/04/30 01:34:47;;;;;;;4.63;4.23;;;13.70;99.90;;;;;;5523865;25;20257;-72
2024/04/30 01:37:13;;;;;;;4.80;4.40;;;13.80;99.90;;;;;;5524055;26;20203;-72
2024/04/30 01:39:38;;;;;;;6.03;4.13;;;13.80;99.90;;;;;;5523078;26;20328;-72
2024/04/30 01:42:05;;;;;;;4.60;4.20;;;13.80;99.90;;;;;;5524068;26;20684;-73
2024/04/30 01:44:31;;;;;;;5.00;4.60;;;13.80;99.90;;;;;;5523345;25;20618;-73
2024/04/30 01:46:56;;;;;;;7.13;4.37;;;13.80;99.90;;;;;;5522671;26;20201;-72
2024/04/30 01:49:22;;;;;;;8.67;4.80;;;13.80;99.90;;;;;;5523305;26;20209;-73
2024/04/30 01:51:48;;;;;;;5.10;4.47;;;13.80;99.90;;;;;;5523118;26;20247;-73
2024/04/30 01:54:13;;;;;;;8.00;5.03;;;13.80;99.90;;;;;;5523567;26;20213;-73
2024/04/30 01:56:39;;;;;;;5.03;4.33;;;13.80;99.90;;;;;;5523013;26;20201;-72
2024/04/30 01:59:05;;;;;;;6.63;4.70;;;13.80;99.90;;;;;;5524022;26;20201;-73
2024/04/30 02:01:31;;;;;;;8.17;4.87;;;13.80;99.90;;;;;;5523647;26;20255;-73
2024/04/30 02:03:56;;;;;;;6.67;4.47;;;13.80;99.90;;;;;;5523686;25;20224;-72
2024/04/30 02:06:22;;;;;;;7.07;4.57;;;13.80;99.90;;;;;;5524362;26;20256;-72
2024/04/30 02:08:48;;;;;;;5.90;4.77;;;13.70;99.90;;;;;;5523907;26;20209;-72
2024/04/30 02:11:14;;;;;;;6.23;4.83;;;13.70;99.90;;;;;;5523877;26;20213;-73
2024/04/30 02:13:39;;;;;;;4.70;4.30;;;13.70;99.90;;;;;;5523550;25;20221;-72
2024/04/30 02:16:05;;;;;;;6.50;4.83;;;13.60;99.90;;;;;;5523810;26;20217;-73
2024/04/30 02:18:30;;;;;;;5.43;4.90;;;13.50;99.90;;;;;;5523984;26;20704;-73
2024/04/30 02:20:56;;;;;;;5.50;5.00;;;13.50;99.90;;;;;;5491087;26;20247;-73
2024/04/30 02:23:21;;;;;;;5.70;5.17;;;13.50;99.90;;;;;;5523464;26;20719;-73
2024/04/30 02:25:47;;;;;;;6.57;5.60;;;13.40;99.90;;;;;;5523566;26;20221;-73
2024/04/30 02:28:13;;;;;;;6.27;5.67;;;13.40;99.90;;;;;;5523569;26;20213;-73
2024/04/30 02:36:09;;;;;;;6.40;5.90;;;13.30;99.90;;;;;;5487109;26;20630;-73
2024/04/30 02:38:35;;;;;;;6.47;5.83;;;13.20;99.90;;;;;;5514412;26;20388;-73
2024/04/30 02:41:01;;;;;;;6.10;5.50;;;13.20;99.90;;;;;;5523669;26;20695;-73
2024/04/30 02:43:27;;;;;;;6.50;6.00;;;13.10;99.90;;;;;;5523374;26;20209;-73
2024/04/30 02:45:52;;;;;;;6.57;5.97;;;13.10;99.90;;;;;;5523194;25;20252;-73
2024/04/30 02:48:18;;;;;;;7.97;6.00;;;13.10;99.90;;;;;;5522984;26;20428;-72
2024/04/30 02:50:43;;;;;;;7.77;6.03;;;13.10;99.90;;;;;;5522815;26;20268;-73
2024/04/30 02:53:09;;;;;;;7.17;6.37;;;13.10;99.90;;;;;;5522383;26;20849;-73
2024/04/30 02:55:34;;;;;;;6.57;6.00;;;13.10;99.90;;;;;;5522731;26;20247;-72
2024/04/30 02:58:00;;;;;;;6.53;6.03;;;13.10;99.90;;;;;;5525791;26;20205;-72
2024/04/30 03:00:25;;;;;;;7.33;6.37;;;13.10;99.90;;;;;;5526635;26;20209;-73
2024/04/30 03:02:51;;;;;;;7.60;6.33;;;13.10;99.90;;;;;;5526289;26;20204;-73
2024/04/30 03:05:17;;;;;;;7.23;5.93;;;13.10;99.90;;;;;;5526802;26;20217;-72
2024/04/30 03:07:42;;;;;;;9.77;6.50;;;13.10;99.90;;;;;;5526726;26;20233;-73
2024/04/30 03:10:08;;;;;;;6.73;6.13;;;13.10;99.90;;;;;;5526488;26;20213;-73
2024/04/30 03:12:33;;;;;;;6.93;6.33;;;13.00;99.90;;;;;;5526252;26;20221;-73
2024/04/30 03:14:59;;;;;;;7.00;6.10;;;13.00;99.90;;;;;;5526214;25;20225;-72
2024/04/30 03:17:24;;;;;;;8.47;6.30;;;13.00;99.90;;;;;;5526842;26;20203;-72
2024/04/30 03:19:50;;;;;;;7.00;6.43;;;12.90;99.90;;;;;;5526045;26;20692;-72
2024/04/30 03:22:15;;;;;;;6.83;6.23;;;12.90;99.90;;;;;;5526048;26;20201;-72
2024/04/30 03:24:41;;;;;;;7.40;6.70;;;13.00;99.90;;;;;;5526312;25;20221;-72
2024/04/30 03:27:07;;;;;;;7.23;6.33;;;13.00;99.90;;;;;;5526886;26;20209;-73
2024/04/30 03:29:32;;;;;;;8.40;6.43;;;13.00;99.90;;;;;;5526999;26;20209;-77
2024/04/30 03:31:58;;;;;;;7.27;6.40;;;13.00;99.90;;;;;;5526533;26;20213;-76
2024/04/30 03:34:23;;;;;;;10.40;6.80;;;13.00;99.90;;;;;;5526232;25;20263;-72
2024/04/30 03:36:49;;;;;;;8.57;6.77;;;13.00;99.90;;;;;;5526158;26;20306;-72
2024/04/30 03:39:15;;;;;;;7.90;7.07;;;13.00;99.90;;;;;;5525830;26;20220;-73
2024/04/30 03:41:40;;;;;;;7.97;6.57;;;12.90;99.90;;;;;;5525948;26;20360;-78
2024/04/30 03:44:06;;;;;;;7.20;6.50;;;12.90;99.90;;;;;;5526625;26;20236;-75
2024/04/30 03:46:31;;;;;;;8.97;6.87;;;12.90;99.90;;;;;;5526194;26;20252;-76
2024/04/30 03:48:57;;;;;;;9.00;6.87;;;12.90;99.90;;;;;;5526247;26;20217;-72
2024/04/30 03:51:23;;;;;;;9.80;6.80;;;12.90;99.90;;;;;;5525590;26;20428;-75
2024/04/30 03:53:48;;;;;;;8.27;6.93;;;12.90;99.90;;;;;;5525705;25;20556;-72
2024/04/30 03:56:14;;;;;;;7.70;6.93;;;12.90;99.90;;;;;;5525972;26;20209;-72
2024/04/30 03:58:39;;;;;;;7.33;6.63;;;12.90;99.90;;;;;;5525932;26;20256;-72
2024/04/30 04:01:07;;;;;;;9.13;7.40;;;12.90;99.90;;;;;;5525331;26;20578;-73
2024/04/30 04:03:32;;;;;;;10.17;7.27;;;12.90;99.90;;;;;;5525876;26;20209;-73
2024/04/30 04:05:58;;;;;;;8.63;7.60;;;12.90;99.90;;;;;;5525349;25;20325;-74
2024/04/30 04:08:23;;;;;;;8.57;7.30;;;12.90;99.90;;;;;;5524523;26;20271;-73
2024/04/30 04:16:18;;;;;;;10.00;8.20;;;12.90;99.90;;;;;;5525482;26;20305;-72
2024/04/30 04:18:43;;;;;;;9.07;8.10;;;13.00;99.90;;;;;;5525511;26;20209;-73
2024/04/30 04:21:09;;;;;;;13.70;8.67;;;13.00;99.90;;;;;;5525247;26;20209;-73
2024/04/30 04:23:34;;;;;;;9.30;8.40;;;13.00;99.90;;;;;;5525011;26;20277;-72
2024/04/30 04:26:00;;;;;;;10.30;9.30;;;13.00;99.90;;;;;;5525073;26;20754;-73
2024/04/30 04:28:25;;;;;;;9.30;8.37;;;13.00;99.90;;;;;;5525626;26;20327;-73
2024/04/30 04:30:51;;;;;;;9.90;8.90;;;13.00;99.90;;;;;;5525298;26;20217;-73
2024/04/30 04:33:17;;;;;;;9.70;8.77;;;13.10;99.90;;;;;;5524945;26;20209;-73
2024/04/30 04:35:42;;;;;;;12.70;9.43;;;13.10;99.90;;;;;;5524917;26;20720;-73
2024/04/30 04:38:08;;;;;;;12.57;8.83;;;13.10;99.90;;;;;;5525167;26;20213;-73
2024/04/30 04:40:33;;;;;;;12.60;9.07;;;13.10;99.90;;;;;;5525083;26;20205;-74
2024/04/30 04:42:59;;;;;;;11.13;8.80;;;13.20;99.90;;;;;;5524842;26;20708;-73
2024/04/30 04:45:24;;;;;;;12.50;9.33;;;13.20;99.90;;;;;;5525030;25;20321;-73
2024/04/30 04:47:50;;;;;;;14.53;9.40;;;13.20;99.90;;;;;;5525100;26;20201;-73
2024/04/30 04:50:15;;;;;;;9.93;9.00;;;13.20;99.90;;;;;;5525104;26;20220;-73
2024/04/30 04:52:41;;;;;;;10.10;8.90;;;13.20;99.90;;;;;;5524313;26;20217;-72
2024/04/30 04:55:07;;;;;;;13.90;9.83;;;13.30;99.90;;;;;;5524869;26;20221;-73
2024/04/30 04:57:32;;;;;;;10.03;9.03;;;13.40;99.90;;;;;;5525421;26;20252;-72
2024/04/30 04:59:58;;;;;;;10.70;9.63;;;13.40;99.90;;;;;;5525049;26;20661;-72
2024/04/30 05:02:23;;;;;;;10.77;9.67;;;13.40;99.90;;;;;;5524489;26;20205;-73
2024/04/30 05:04:49;;;;;;;10.77;9.53;;;13.40;99.90;;;;;;5524331;26;20217;-74
2024/04/30 05:07:15;;;;;;;11.07;10.00;;;13.50;99.90;;;;;;5523714;26;20225;-74
2024/04/30 05:09:44;;;;;;;12.87;9.30;;;13.50;99.90;;;;;;5524179;26;20205;-74
2024/04/30 05:12:09;;;;;;;10.43;9.30;;;13.60;99.90;;;;;;5524028;26;20201;-74
2024/04/30 05:14:35;;;;;;;10.77;9.60;;;13.60;99.90;;;;;;5524179;25;20221;-73
2024/04/30 05:17:00;;;;;;;14.93;9.73;;;13.60;99.90;;;;;;5524059;26;20297;-75
2024/04/30 05:19:26;;;;;;;10.93;9.20;;;13.60;99.90;;;;;;5523796;26;20201;-74
2024/04/30 05:21:52;;;;;;;14.40;10.13;;;13.60;99.90;;;;;;5523481;26;20708;-74
2024/04/30 05:24:17;;;;;;;13.63;10.87;;;13.70;99.90;;;;;;5523893;26;20229;-74
2024/04/30 05:26:43;;;;;;;14.27;10.40;;;13.70;99.90;;;;;;5524208;26;20243;-74
2024/04/30 05:29:08;;;;;;;14.57;11.50;;;13.80;99.90;;;;;;5523830;26;20443;-74
2024/04/30 05:31:38;;;;;;;16.87;11.23;;;13.90;99.90;;;;;;5523700;26;20209;-74
2024/04/30 05:34:04;;;;;;;11.67;10.47;;;13.90;99.90;;;;;;5523524;26;20217;-72
2024/04/30 05:36:30;;;;;;;15.37;10.60;;;13.90;99.90;;;;;;5523577;26;20267;-75
2024/04/30 05:38:55;;;;;;;12.97;11.13;;;14.00;99.90;;;;;;5523175;26;20216;-72
2024/04/30 05:41:21;;;;;;;14.50;10.57;;;14.10;99.90;;;;;;5521602;26;20278;-72
2024/04/30 05:43:47;;;;;;;13.80;10.47;;;14.20;99.90;;;;;;5522719;25;20578;-73
2024/04/30 05:46:12;;;;;;;12.53;11.17;;;14.40;99.90;;;;;;5523698;26;20676;-72
2024/04/30 05:48:38;;;;;;;11.40;10.20;;;14.50;99.90;;;;;;5491395;26;20224;-72
2024/04/30 05:51:05;;;;;;;13.37;10.97;;;14.60;99.90;;;;;;5522986;26;20229;-73
2024/04/30 05:53:30;;;;;;;11.83;10.30;;;14.60;99.90;;;;;;5523826;26;20642;-74
2024/04/30 05:55:56;;;;;;;12.90;9.63;;;14.50;99.90;;;;;;5523850;26;20221;-73
2024/04/30 05:58:22;;;;;;;13.67;9.63;;;14.40;99.90;;;;;;5523599;26;20320;-73
2024/04/30 06:00:47;;;;;;;10.63;9.27;;;14.30;99.90;;;;;;5523152;26;20205;-74
2024/04/30 06:03:13;;;;;;;13.70;9.67;;;14.30;99.90;;;;;;5523028;26;20544;-74
2024/04/30 06:05:39;;;;;;;14.40;9.63;;;14.30;99.90;;;;;;5523147;25;20229;-73
2024/04/30 06:08:06;;;;;;;13.00;9.63;;;14.30;99.90;;;;;;5521362;26;20277;-73
2024/04/30 06:10:32;;;;;;;12.93;11.00;;;14.40;99.90;;;;;;5523096;26;20213;-74
2024/04/30 06:12:57;;;;;;;13.03;9.97;;;14.40;99.90;;;;;;5522935;26;20209;-73
2024/04/30 06:15:23;;;;;;;13.67;9.47;;;14.50;99.90;;;;;;5523019;26;20267;-74
2024/04/30 06:17:48;;;;;;;11.17;9.93;;;14.70;99.90;;;;;;5490580;26;20221;-74
2024/04/30 06:20:14;;;;;;;12.33;9.97;;;14.90;99.90;;;;;;5522715;26;20259;-74
2024/04/30 06:22:40;;;;;;;15.23;9.53;;;15.00;99.90;;;;;;5522637;26;20271;-73
2024/04/30 06:25:05;;;;;;;9.60;8.40;;;15.20;99.90;;;;;;5522434;26;20229;-74
2024/04/30 06:27:31;;;;;;;9.50;8.00;;;15.40;99.90;;;;;;5522380;26;20240;-74
2024/04/30 06:29:56;;;;;;;11.23;8.13;;;15.50;99.90;;;;;;5522697;26;20252;-73
2024/04/30 06:32:22;;;;;;;13.07;8.20;;;15.70;99.90;;;;;;5524867;26;20649;-73
2024/04/30 06:34:47;;;;;;;10.87;7.80;;;15.80;99.90;;;;;;5526341;26;20213;-73
2024/04/30 06:37:13;;;;;;;8.50;7.53;;;15.90;99.90;;;;;;5526080;26;20254;-73
2024/04/30 06:39:39;;;;;;;7.80;7.07;;;15.80;99.90;;;;;;5526322;26;20210;-73
2024/04/30 06:42:05;;;;;;;10.63;6.87;;;15.80;99.90;;;;;;5525995;26;20205;-73
2024/04/30 06:44:32;;;;;;;8.20;7.20;;;15.80;99.90;;;;;;5526246;25;20221;-73
2024/04/30 06:46:58;;;;;;;9.30;7.07;;;15.90;99.90;;;;;;5526204;26;20221;-73
2024/04/30 06:49:23;;;;;;;8.77;6.93;;;16.10;99.90;;;;;;5526434;26;20213;-73
2024/04/30 06:51:49;;;;;;;8.47;6.57;;;16.30;99.90;;;;;;5525993;26;20217;-73
2024/04/30 06:54:14;;;;;;;10.77;6.73;;;16.50;99.90;;;;;;5525938;26;20259;-73
2024/04/30 06:56:40;;;;;;;7.30;6.60;;;16.60;99.90;;;;;;5526446;26;20204;-73
2024/04/30 06:59:06;;;;;;;6.30;5.77;;;16.70;99.90;;;;;;5526011;26;20201;-73
2024/04/30 07:01:31;;;;;;;6.13;5.53;;;16.80;99.90;;;;;;5525887;26;20205;-73
2024/04/30 07:03:57;;;;;;;6.80;6.10;;;16.90;99.90;;;;;;5525444;26;20209;-73
2024/04/30 07:06:22;;;;;;;9.97;6.07;;;17.00;99.90;;;;;;5526101;26;20248;-72
2024/04/30 07:08:48;;;;;;;7.43;6.30;;;17.30;99.90;;;;;;5525847;26;20260;-72
2024/04/30 07:11:14;;;;;;;11.03;5.87;;;17.70;99.90;;;;;;5525172;26;20255;-72
2024/04/30 07:13:39;;;;;;;9.43;5.85;;;18.10;99.90;;;;;;5525281;25;20255;-72
2024/04/30 07:16:05;;;;;;;6.20;5.60;;;18.60;99.90;;;;;;5525433;26;20209;-72
2024/04/30 07:18:30;;;;;;;7.88;6.45;;;19.20;99.90;;;;;;5525657;26;20237;-72
2024/04/30 07:20:56;;;;;;;8.27;5.95;;;19.70;99.90;;;;;;5525435;26;20243;-72
2024/04/30 07:23:22;;;;;;;7.95;5.50;;;20.30;99.90;;;;;;5525574;26;20755;-72
2024/04/30 07:25:48;;;;;;;5.00;4.57;;;20.80;99.90;;;;;;5525571;26;20217;-72
2024/04/30 07:28:13;;;;;;;7.93;4.22;;;21.40;99.90;;;;;;5525531;26;20217;-72
2024/04/30 07:30:39;;;;;;;4.78;3.90;;;21.80;99.90;;;;;;5525600;26;20608;-72
2024/04/30 07:33:05;;;;;;;6.90;3.92;;;22.20;99.90;;;;;;5525050;26;20217;-72
2024/04/30 07:35:31;;;;;;;6.93;4.05;;;22.70;99.90;;;;;;5525518;25;20271;-72
2024/04/30 07:37:56;;;;;;;6.32;4.43;;;23.00;99.90;;;;;;5525327;26;20265;-72
2024/04/30 07:40:22;;;;;;;5.45;4.00;;;23.20;99.90;;;;;;5525537;26;20201;-72
2024/04/30 07:42:47;;;;;;;8.82;4.13;;;23.50;99.90;;;;;;5522261;26;20217;-73
2024/04/30 07:45:13;;;;;;;4.03;3.50;;;23.40;99.90;;;;;;5488773;20;20252;-74
2024/04/30 07:47:38;;;;;;;6.30;4.20;;;23.50;99.90;;;;;;5375325;26;20279;-74
2024/04/30 07:50:04;;;;;;;7.00;4.35;;;23.50;99.90;;;;;;5412794;26;20221;-74
2024/04/30 07:52:30;;;;;;;5.88;4.00;;;23.40;99.90;;;;;;5405652;26;20221;-74
2024/04/30 07:54:55;;;;;;;6.03;4.05;;;23.10;99.90;;;;;;5405858;26;20601;-74
2024/04/30 07:57:21;;;;;;;6.72;4.32;;;23.20;99.90;;;;;;5405371;26;20224;-74
2024/04/30 07:59:46;;;;;;;6.78;4.13;;;23.10;99.90;;;;;;5404959;26;20225;-74
2024/04/30 08:02:12;;;;;;;5.30;3.88;;;22.90;99.90;;;;;;5405454;26;20804;-74
2024/04/30 08:04:38;;;;;;;5.82;4.15;;;22.90;99.90;;;;;;5404509;26;20220;-74
2024/04/30 08:07:03;;;;;;;6.40;4.00;;;22.80;99.90;;;;;;5405892;26;20742;-74
2024/04/30 08:09:29;;;;;;;7.97;3.88;;;22.90;99.90;;;;;;5405015;26;20213;-74
2024/04/30 08:11:58;;;;;;;9.85;4.20;;;22.90;99.90;;;;;;5405589;26;20212;-74
2024/04/30 08:14:24;;;;;;;6.65;4.18;;;23.00;99.90;;;;;;5402932;26;20332;-74
2024/04/30 08:16:49;;;;;;;5.90;4.07;;;23.30;99.90;;;;;;5405131;26;20208;-74
2024/04/30 08:19:15;;;;;;;6.05;4.20;;;23.50;99.90;;;;;;5405768;26;20707;-74
2024/04/30 08:21:40;;;;;;;5.55;4.00;;;23.90;99.90;;;;;;5403039;26;20221;-74
2024/04/30 08:24:06;;;;;;;5.45;3.90;;;24.30;99.90;;;;;;5405269;26;20225;-74
2024/04/30 08:26:34;;;;;;;5.93;3.28;;;24.60;99.90;;;;;;5391222;26;20218;-74
2024/04/30 08:29:00;;;;;;;6.38;3.05;;;25.10;99.90;;;;;;5370794;26;20252;-75
2024/04/30 08:31:26;;;;;;;4.45;2.83;;;25.40;99.90;;;;;;5412000;26;20275;-74
2024/04/30 08:33:51;;;;;;;6.82;2.97;;;25.60;99.90;;;;;;5405813;26;20208;-74
2024/04/30 08:36:19;;;;;;;8.60;3.92;;;25.80;99.90;;;;;;5405047;26;20711;-74
2024/04/30 08:38:45;;;;;;;6.07;3.50;;;25.80;99.90;;;;;;5425316;26;20306;-74
2024/04/30 08:41:11;;;;;;;4.28;2.90;;;25.60;99.90;;;;;;5409488;26;20224;-75
2024/04/30 08:43:37;;;;;;;4.95;3.15;;;25.40;99.90;;;;;;5417460;26;20217;-74
2024/04/30 08:46:04;;;;;;;6.97;3.55;;;25.30;99.90;;;;;;5404767;26;20563;-74
2024/04/30 08:48:31;;;;;;;6.07;3.88;;;25.20;99.90;;;;;;5405744;26;20239;-74
2024/04/30 08:50:57;;;;;;;4.88;3.20;;;25.10;99.90;;;;;;5405277;26;20610;-74
2024/04/30 08:53:23;;;;;;;6.43;4.00;;;24.90;99.90;;;;;;5405127;26;20212;-74
2024/04/30 08:55:54;;;;;;;5.03;3.53;;;24.80;99.90;;;;;;5413338;26;20271;-74
2024/04/30 08:58:19;;;;;;;6.05;4.15;;;24.80;99.90;;;;;;5405440;26;20224;-74
2024/04/30 09:00:45;;;;;;;3.28;2.78;;;24.80;99.90;;;;;;5405348;26;20260;-74
2024/04/30 09:03:10;;;;;;;4.78;3.40;;;24.90;99.90;;;;;;5404294;26;20253;-75
2024/04/30 09:05:36;;;;;;;4.65;3.28;;;25.10;99.90;;;;;;5405317;26;20224;-74
2024/04/30 09:08:03;;;;;;;5.57;3.38;;;25.30;99.90;;;;;;5405203;26;20224;-74
2024/04/30 09:10:32;;;;;;;4.55;3.00;;;25.30;99.90;;;;;;5402390;26;20221;-74
2024/04/30 09:13:00;;;;;;;5.43;3.00;;;25.40;99.90;;;;;;5404591;26;20212;-75
2024/04/30 09:15:26;;;;;;;4.47;2.97;;;25.70;99.90;;;;;;5404995;26;20648;-74
2024/04/30 09:17:56;;;;;;;5.47;3.22;;;26.00;99.90;;;;;;5405188;26;20216;-75
2024/04/30 09:20:22;;;;;;;6.07;2.83;;;26.20;99.90;;;;;;5405209;26;20536;-75
2024/04/30 09:22:48;;;;;;;6.38;2.78;;;26.20;99.90;;;;;;5404456;26;20288;-75
2024/04/30 09:25:15;;;;;;;5.03;3.00;;;26.20;99.90;;;;;;5405034;26;20777;-75
2024/04/30 09:27:41;;;;;;;5.18;2.58;;;26.10;99.90;;;;;;5405003;26;20204;-75
2024/04/30 09:30:20;;;;;;;5.78;2.70;;;26.20;99.90;;;;;;5404463;26;20348;-75
2024/04/30 09:32:46;;;;;;;5.15;2.70;;;26.30;99.90;;;;;;5404443;26;20597;-75
2024/04/30 09:35:25;;;;;;;4.35;2.63;;;26.30;99.90;;;;;;5403782;26;20225;-74
2024/04/30 09:38:01;;;;;;;2.90;2.60;;;26.50;99.90;;;;;;5404531;26;20340;-75
2024/04/30 09:40:31;;;;;;;3.55;2.25;;;26.30;99.90;;;;;;5395850;26;20272;-74
2024/04/30 09:42:56;;;;;;;3.85;2.78;;;26.10;99.90;;;;;;5368940;26;20213;-75
2024/04/30 09:45:23;;;;;;;8.02;2.50;;;26.00;99.90;;;;;;5369268;26;20325;-75
2024/04/30 09:47:50;;;;;;;4.57;3.35;;;26.20;99.90;;;;;;5369350;26;20209;-75
2024/04/30 09:50:16;;;;;;;5.50;3.15;;;26.20;99.90;;;;;;5369193;26;20259;-75
2024/04/30 09:52:44;;;;;;;6.97;3.03;;;26.00;99.90;;;;;;5369213;26;20214;-75
2024/04/30 09:55:10;;;;;;;5.38;3.17;;;26.20;99.90;;;;;;5369146;26;20276;-75
2024/04/30 09:57:39;;;;;;;7.32;3.20;;;26.40;99.90;;;;;;5387026;26;20584;-75
2024/04/30 10:00:10;;;;;;;7.53;2.80;;;26.60;99.90;;;;;;5404205;26;20296;-75
2024/04/30 10:02:44;;;;;;;4.85;2.63;;;26.70;99.90;;;;;;5404567;26;20239;-74
2024/04/30 10:05:17;;;;;;;4.40;2.88;;;27.00;99.90;;;;;;5404144;26;20598;-75
2024/04/30 10:07:44;;;;;;;3.75;2.72;;;27.20;99.90;;;;;;5406945;26;20239;-75
2024/04/30 10:10:21;;;;;;;3.15;2.85;;;27.30;99.90;;;;;;5407358;26;20205;-74
2024/04/30 10:12:46;;;;;;;3.97;2.53;;;27.40;99.90;;;;;;5407306;26;20727;-74
2024/04/30 10:15:12;;;;;;;4.43;2.40;;;27.20;99.20;;;;;;5407910;26;20276;-74
2024/04/30 10:17:42;;;;;;;5.93;3.17;;;27.30;99.90;;;;;;5407637;26;20213;-74
2024/04/30 10:20:08;;;;;;;4.47;2.80;;;27.40;98.90;;;;;;5407106;26;20212;-74
2024/04/30 10:22:37;;;;;;;4.68;2.70;;;27.70;99.30;;;;;;5407358;26;20220;-74
2024/04/30 10:25:03;;;;;;;3.13;2.55;;;27.90;99.90;;;;;;5407373;26;20224;-74
2024/04/30 10:27:29;;;;;;;3.65;2.42;;;28.00;99.80;;;;;;5407687;26;20320;-74
2024/04/30 10:29:54;;;;;;;4.55;2.42;;;27.90;99.10;;;;;;5415121;26;20228;-75
2024/04/30 10:32:20;;;;;;;4.60;2.50;;;27.90;98.90;;;;;;5407335;26;20259;-75
2024/04/30 10:34:53;;;;;;;3.50;2.40;;;27.70;99.30;;;;;;5407571;26;20220;-75
2024/04/30 10:37:29;;;;;;;5.40;2.60;;;27.70;96.50;;;;;;5404403;26;20551;-75
2024/04/30 10:39:55;;;;;;;2.92;2.28;;;27.70;98.30;;;;;;5407006;26;20212;-75
2024/04/30 10:42:20;;;;;;;4.60;2.38;;;27.80;99.00;;;;;;5407593;26;20216;-75
2024/04/30 10:44:46;;;;;;;5.28;2.75;;;28.00;99.90;;;;;;5376089;26;20659;-74
2024/04/30 10:47:11;;;;;;;2.90;2.20;;;28.10;98.40;;;;;;5407103;26;20204;-74
2024/04/30 10:49:37;;;;;;;3.60;2.33;;;28.00;99.50;;;;;;5407671;26;20726;-75
2024/04/30 10:52:03;;;;;;;4.53;2.05;;;28.00;97.50;;;;;;5407414;26;20208;-74
2024/04/30 10:54:29;;;;;;;3.60;2.45;;;28.20;99.80;;;;;;5406726;26;20317;-74
2024/04/30 10:56:55;;;;;;;5.88;2.10;;;28.40;96.30;;;;;;5407023;26;20229;-74
2024/04/30 10:59:27;;;;;;;7.43;2.38;;;28.30;95.80;;;;;;5406048;26;20216;-74
2024/04/30 11:01:59;;;;;;;5.28;2.47;;;28.30;97.60;;;;;;5406785;26;20212;-74
2024/04/30 11:04:32;;;;;;;5.90;2.45;;;28.30;96.80;;;;;;5407365;26;20225;-74
2024/04/30 11:06:57;;;;;;;4.35;2.00;;;28.50;97.60;;;;;;5407368;26;20307;-74
2024/04/30 11:09:23;;;;;;;4.28;2.22;;;28.40;97.60;;;;;;5407102;26;20237;-75
2024/04/30 11:14:22;;;;;;;5.88;2.58;;;28.20;97.80;;;;;;5406978;26;20560;-74
2024/04/30 11:16:54;;;;;;;6.13;2.20;;;28.20;96.20;;;;;;5406780;26;20609;-74
2024/04/30 11:19:20;;;;;;;5.57;2.22;;;28.20;94.30;;;;;;5407065;26;20212;-74
2024/04/30 11:21:52;;;;;;;5.93;2.33;;;28.40;96.80;;;;;;5407030;26;20624;-74
2024/04/30 11:24:17;;;;;;;4.38;2.45;;;28.60;96.10;;;;;;5407024;26;20259;-75
2024/04/30 11:26:43;;;;;;;3.53;2.47;;;28.70;95.40;;;;;;5406333;26;20603;-74
2024/04/30 11:29:08;;;;;;;3.35;2.30;;;28.80;96.30;;;;;;5407031;26;20317;-75
2024/04/30 11:31:34;;;;;;;3.53;2.38;;;28.80;93.20;;;;;;5406545;26;20258;-74
2024/04/30 11:34:01;;;;;;;6.03;2.55;;;28.90;96.60;;;;;;5406662;26;20259;-75
2024/04/30 11:36:27;;;;;;;4.63;2.35;;;29.10;95.90;;;;;;5423642;26;20560;-75
2024/04/30 11:38:52;;;;;;;7.45;2.53;;;29.30;94.40;;;;;;5452359;26;20257;-74
2024/04/30 11:41:18;;;;;;;5.40;2.42;;;29.50;95.00;;;;;;5450248;26;20211;-74
2024/04/30 11:43:43;;;;;;;5.95;2.35;;;29.80;93.60;;;;;;5451644;26;20223;-74
2024/04/30 11:46:10;;;;;;;3.92;2.10;;;29.80;95.40;;;;;;5452345;26;20694;-74
2024/04/30 11:48:35;;;;;;;5.00;2.42;;;29.90;93.60;;;;;;5452550;26;20211;-75
2024/04/30 11:51:01;;;;;;;7.38;2.28;;;30.00;94.00;;;;;;5451350;26;20207;-74
2024/04/30 11:53:28;;;;;;;5.18;2.00;;;30.00;92.90;;;;;;5452436;26;20254;-74
2024/04/30 11:55:53;;;;;;;6.55;2.40;;;30.20;94.70;;;;;;5452542;26;20331;-75
2024/04/30 11:58:19;;;;;;;5.45;2.15;;;30.30;95.00;;;;;;5452933;26;20214;-75
2024/04/30 12:00:45;;;;;;;5.00;2.33;;;30.30;91.50;;;;;;5452501;26;20215;-74
2024/04/30 12:03:11;;;;;;;3.72;2.22;;;30.10;93.10;;;;;;5452467;26;20331;-74
2024/04/30 12:05:37;;;;;;;6.75;2.63;;;29.90;90.40;;;;;;5452256;26;20588;-74
2024/04/30 12:08:03;;;;;;;4.38;2.28;;;29.80;93.20;;;;;;5452267;26;20285;-74
2024/04/30 12:10:28;;;;;;;3.28;2.25;;;29.90;94.90;;;;;;5452033;26;20283;-74
2024/04/30 12:12:55;;;;;;;3.47;2.38;;;30.10;90.70;;;;;;5451698;26;20211;-74
2024/04/30 12:15:21;;;;;;;7.78;2.65;;;30.10;92.00;;;;;;5452193;26;20318;-74
2024/04/30 12:17:46;;;;;;;3.03;2.00;;;30.10;91.20;;;;;;5452209;26;20203;-73
2024/04/30 12:20:12;;;;;;;3.38;2.30;;;30.00;92.60;;;;;;5451758;26;20639;-74
2024/04/30 12:22:38;;;;;;;5.43;2.60;;;30.20;90.80;;;;;;5452085;26;20207;-74
2024/04/30 12:25:04;;;;;;;4.57;2.50;;;30.40;91.50;;;;;;5451723;26;20228;-74
2024/04/30 12:27:30;;;;;;;4.78;2.70;;;30.80;90.90;;;;;;5451913;26;20274;-74
2024/04/30 12:29:55;;;;;;;7.10;2.58;;;31.30;91.10;;;;;;5450688;26;20701;-74
2024/04/30 12:32:21;;;;;;;4.13;2.40;;;31.30;89.20;;;;;;5451582;26;20202;-74
2024/04/30 12:34:47;;;;;;;6.25;2.30;;;31.30;89.30;;;;;;5451767;26;20231;-74
2024/04/30 12:37:12;;;;;;;4.80;2.20;;;31.10;83.60;;;;;;5419744;26;20223;-74
2024/04/30 12:39:38;;;;;;;4.55;2.53;;;31.10;90.20;;;;;;5423387;26;20228;-74
2024/04/30 12:42:05;;;;;;;4.15;1.95;;;31.20;89.50;;;;;;5406728;26;20240;-74
2024/04/30 12:44:30;;;;;;;4.45;2.35;;;31.10;87.80;;;;;;5405523;26;20328;-74
2024/04/30 12:46:56;;;;;;;4.50;2.53;;;31.00;89.90;;;;;;5405768;26;20228;-74
2024/04/30 12:49:21;;;;;;;3.88;2.38;;;30.90;87.30;;;;;;5405340;26;20828;-73
2024/04/30 12:51:47;;;;;;;7.35;2.28;;;30.80;86.20;;;;;;5404885;26;20328;-74
2024/04/30 12:54:13;;;;;;;3.72;2.35;;;30.60;82.80;;;;;;5405106;26;20273;-74